sensor_id;sensor_type;location;lat;lon;timestamp;temperature;humidity
27559;DHT22;15002;52.028;5.670;2023-07-29T00:01:50;21.00;99.90
27559;DHT22;15002;52.028;5.670;2023-07-29T00:04:16;21.00;99.90
27559;DHT22;15002;52.028;5.670;2023-07-29T00:06:42;21.00;99.90
27559;DHT22;15002;52.028;5.670;2023-07-29T00:09:08;21.00;99.90
27559;DHT22;15002;52.028;5.670;2023-07-29T00:11:33;21.00;99.90
27559;DHT22;15002;52.028;5.670;2023-07-29T00:14:01;20.90;99.90
27559;DHT22;15002;52.028;5.670;2023-07-29T00:16:27;20.80;99.90
27559;DHT22;15002;52.028;5.670;2023-07-29T00:18:53;20.80;99.90
27559;DHT22;15002;52.028;5.670;2023-07-29T00:21:18;20.90;99.90
27559;DHT22;15002;52.028;5.670;2023-07-29T00:23:45;20.90;99.90
27559;DHT22;15002;52.028;5.670;2023-07-29T00:26:10;20.90;99.90
27559;DHT22;15002;52.028;5.670;2023-07-29T00:28:36;20.90;99.90
27559;DHT22;15002;52.028;5.670;2023-07-29T00:31:02;20.90;99.90
27559;DHT22;15002;52.028;5.670;2023-07-29T00:33:27;20.90;99.90
27559;DHT22;15002;52.028;5.670;2023-07-29T00:35:53;20.80;99.90
27559;DHT22;15002;52.028;5.670;2023-07-29T00:38:19;20.80;99.90
27559;DHT22;15002;52.028;5.670;2023-07-29T00:40:45;20.90;99.90
27559;DHT22;15002;52.028;5.670;2023-07-29T00:43:11;21.20;99.90
27559;DHT22;15002;52.028;5.670;2023-07-29T00:45:37;21.10;99.90
27559;DHT22;15002;52.028;5.670;2023-07-29T00:48:04;20.90;99.90
27559;DHT22;15002;52.028;5.670;2023-07-29T00:50:31;20.70;99.90
27559;DHT22;15002;52.028;5.670;2023-07-29T00:52:57;20.80;99.90
27559;DHT22;15002;52.028;5.670;2023-07-29T00:55:23;20.80;99.90
27559;DHT22;15002;52.028;5.670;2023-07-29T00:57:50;21.00;99.90
27559;DHT22;15002;52.028;5.670;2023-07-29T01:00:18;21.00;99.90
27559;DHT22;15002;52.028;5.670;2023-07-29T01:02:44;20.90;99.90
27559;DHT22;15002;52.028;5.670;2023-07-29T01:05:12;20.70;99.90
27559;DHT22;15002;52.028;5.670;2023-07-29T01:07:49;20.60;99.90
27559;DHT22;15002;52.028;5.670;2023-07-29T01:10:35;20.50;99.90
27559;DHT22;15002;52.028;5.670;2023-07-29T01:16:25;20.40;99.90
27559;DHT22;15002;52.028;5.670;2023-07-29T01:18:45;20.40;99.90
27559;DHT22;15002;52.028;5.670;2023-07-29T01:21:13;20.60;99.90
27559;DHT22;15002;52.028;5.670;2023-07-29T01:23:39;20.60;99.90
27559;DHT22;15002;52.028;5.670;2023-07-29T01:26:05;20.60;99.90
27559;DHT22;15002;52.028;5.670;2023-07-29T01:28:31;20.50;99.90
27559;DHT22;15002;52.028;5.670;2023-07-29T01:31:10;20.50;99.90
27559;DHT22;15002;52.028;5.670;2023-07-29T01:33:44;20.40;99.90
27559;DHT22;15002;52.028;5.670;2023-07-29T01:36:17;20.40;99.90
27559;DHT22;15002;52.028;5.670;2023-07-29T01:38:44;20.40;99.90
27559;DHT22;15002;52.028;5.670;2023-07-29T01:41:10;20.40;99.90
27559;DHT22;15002;52.028;5.670;2023-07-29T01:43:37;20.50;99.90
27559;DHT22;15002;52.028;5.670;2023-07-29T01:46:12;20.40;99.90
27559;DHT22;15002;52.028;5.670;2023-07-29T01:48:38;20.50;99.90
27559;DHT22;15002;52.028;5.670;2023-07-29T01:51:04;20.60;99.90
27559;DHT22;15002;52.028;5.670;2023-07-29T01:53:30;20.60;99.90
27559;DHT22;15002;52.028;5.670;2023-07-29T01:55:56;20.70;99.90
27559;DHT22;15002;52.028;5.670;2023-07-29T01:58:22;20.70;99.90
27559;DHT22;15002;52.028;5.670;2023-07-29T02:00:48;20.80;99.90
27559;DHT22;15002;52.028;5.670;2023-07-29T02:03:14;20.80;99.90
27559;DHT22;15002;52.028;5.670;2023-07-29T02:05:40;21.00;99.90
27559;DHT22;15002;52.028;5.670;2023-07-29T02:08:05;21.00;99.90
27559;DHT22;15002;52.028;5.670;2023-07-29T02:10:31;21.10;99.90
27559;DHT22;15002;52.028;5.670;2023-07-29T02:12:57;21.20;99.90
27559;DHT22;15002;52.028;5.670;2023-07-29T02:15:22;21.00;99.90
27559;DHT22;15002;52.028;5.670;2023-07-29T02:17:50;21.00;99.90
27559;DHT22;15002;52.028;5.670;2023-07-29T02:20:17;20.90;99.90
27559;DHT22;15002;52.028;5.670;2023-07-29T02:22:42;20.90;99.90
27559;DHT22;15002;52.028;5.670;2023-07-29T02:25:08;20.80;99.90
27559;DHT22;15002;52.028;5.670;2023-07-29T02:27:35;20.80;99.90
27559;DHT22;15002;52.028;5.670;2023-07-29T02:30:01;20.80;99.90
27559;DHT22;15002;52.028;5.670;2023-07-29T02:32:27;20.80;99.90
27559;DHT22;15002;52.028;5.670;2023-07-29T02:34:53;20.90;99.90
27559;DHT22;15002;52.028;5.670;2023-07-29T02:37:19;20.90;99.90
27559;DHT22;15002;52.028;5.670;2023-07-29T02:39:45;20.90;99.90
27559;DHT22;15002;52.028;5.670;2023-07-29T02:42:11;20.90;99.90
27559;DHT22;15002;52.028;5.670;2023-07-29T02:44:37;21.00;99.90
27559;DHT22;15002;52.028;5.670;2023-07-29T02:47:03;21.00;99.90
27559;DHT22;15002;52.028;5.670;2023-07-29T02:49:28;21.00;99.90
27559;DHT22;15002;52.028;5.670;2023-07-29T02:51:54;21.10;99.90
27559;DHT22;15002;52.028;5.670;2023-07-29T02:54:20;21.20;99.90
27559;DHT22;15002;52.028;5.670;2023-07-29T02:56:45;21.30;99.90
27559;DHT22;15002;52.028;5.670;2023-07-29T02:59:11;21.30;99.90
27559;DHT22;15002;52.028;5.670;2023-07-29T03:01:37;21.10;99.90
27559;DHT22;15002;52.028;5.670;2023-07-29T03:04:02;21.10;99.90
27559;DHT22;15002;52.028;5.670;2023-07-29T03:06:28;21.00;99.90
27559;DHT22;15002;52.028;5.670;2023-07-29T03:08:54;21.00;99.90
27559;DHT22;15002;52.028;5.670;2023-07-29T03:11:20;21.00;99.90
27559;DHT22;15002;52.028;5.670;2023-07-29T03:13:45;20.90;99.90
27559;DHT22;15002;52.028;5.670;2023-07-29T03:16:16;20.90;99.90
27559;DHT22;15002;52.028;5.670;2023-07-29T03:18:43;20.90;99.90
27559;DHT22;15002;52.028;5.670;2023-07-29T03:21:09;20.80;99.90
27559;DHT22;15002;52.028;5.670;2023-07-29T03:23:35;20.80;99.90
27559;DHT22;15002;52.028;5.670;2023-07-29T03:26:02;20.90;99.90
27559;DHT22;15002;52.028;5.670;2023-07-29T03:28:36;20.90;99.90
27559;DHT22;15002;52.028;5.670;2023-07-29T03:31:01;20.80;99.90
27559;DHT22;15002;52.028;5.670;2023-07-29T03:33:28;20.80;99.90
27559;DHT22;15002;52.028;5.670;2023-07-29T03:35:53;20.80;99.90
27559;DHT22;15002;52.028;5.670;2023-07-29T03:38:19;21.00;99.90
27559;DHT22;15002;52.028;5.670;2023-07-29T03:40:45;20.80;99.90
27559;DHT22;15002;52.028;5.670;2023-07-29T03:43:10;20.90;99.90
27559;DHT22;15002;52.028;5.670;2023-07-29T03:45:37;20.80;99.90
27559;DHT22;15002;52.028;5.670;2023-07-29T03:48:04;20.90;99.90
27559;DHT22;15002;52.028;5.670;2023-07-29T03:50:30;20.80;99.90
27559;DHT22;15002;52.028;5.670;2023-07-29T03:52:56;20.80;99.90
27559;DHT22;15002;52.028;5.670;2023-07-29T03:55:22;20.80;99.90
27559;DHT22;15002;52.028;5.670;2023-07-29T03:57:47;20.70;99.90
27559;DHT22;15002;52.028;5.670;2023-07-29T04:00:13;20.70;99.90
27559;DHT22;15002;52.028;5.670;2023-07-29T04:02:39;20.70;99.90
27559;DHT22;15002;52.028;5.670;2023-07-29T04:05:06;20.70;99.90
27559;DHT22;15002;52.028;5.670;2023-07-29T04:07:34;20.60;99.90
27559;DHT22;15002;52.028;5.670;2023-07-29T04:10:00;20.60;99.90
27559;DHT22;15002;52.028;5.670;2023-07-29T04:12:26;20.60;99.90
27559;DHT22;15002;52.028;5.670;2023-07-29T04:14:52;20.70;99.90
27559;DHT22;15002;52.028;5.670;2023-07-29T04:17:17;20.60;99.90
27559;DHT22;15002;52.028;5.670;2023-07-29T04:19:43;20.60;99.90
27559;DHT22;15002;52.028;5.670;2023-07-29T04:22:09;20.50;99.90
27559;DHT22;15002;52.028;5.670;2023-07-29T04:24:38;20.60;99.90
27559;DHT22;15002;52.028;5.670;2023-07-29T04:27:04;20.60;99.90
27559;DHT22;15002;52.028;5.670;2023-07-29T04:29:30;20.50;99.90
27559;DHT22;15002;52.028;5.670;2023-07-29T04:31:55;20.50;99.90
27559;DHT22;15002;52.028;5.670;2023-07-29T04:34:24;20.50;99.90
27559;DHT22;15002;52.028;5.670;2023-07-29T04:36:50;20.60;99.90
27559;DHT22;15002;52.028;5.670;2023-07-29T04:39:16;20.50;99.90
27559;DHT22;15002;52.028;5.670;2023-07-29T04:41:42;20.40;99.90
27559;DHT22;15002;52.028;5.670;2023-07-29T04:44:07;20.30;99.90
27559;DHT22;15002;52.028;5.670;2023-07-29T04:46:35;20.30;99.90
27559;DHT22;15002;52.028;5.670;2023-07-29T04:49:00;20.30;99.90
27559;DHT22;15002;52.028;5.670;2023-07-29T04:51:26;20.40;99.90
27559;DHT22;15002;52.028;5.670;2023-07-29T04:53:52;20.40;99.90
27559;DHT22;15002;52.028;5.670;2023-07-29T04:56:18;20.40;99.90
27559;DHT22;15002;52.028;5.670;2023-07-29T04:58:43;20.40;99.90
27559;DHT22;15002;52.028;5.670;2023-07-29T05:01:09;20.50;99.90
27559;DHT22;15002;52.028;5.670;2023-07-29T05:03:35;20.40;99.90
27559;DHT22;15002;52.028;5.670;2023-07-29T05:06:00;20.50;99.90
27559;DHT22;15002;52.028;5.670;2023-07-29T05:08:27;20.70;99.90
27559;DHT22;15002;52.028;5.670;2023-07-29T05:10:53;20.60;99.90
27559;DHT22;15002;52.028;5.670;2023-07-29T05:13:19;20.80;99.90
27559;DHT22;15002;52.028;5.670;2023-07-29T05:15:46;20.80;99.90
27559;DHT22;15002;52.028;5.670;2023-07-29T05:18:12;20.70;99.90
27559;DHT22;15002;52.028;5.670;2023-07-29T05:20:38;20.70;99.90
27559;DHT22;15002;52.028;5.670;2023-07-29T05:23:03;20.80;99.90
27559;DHT22;15002;52.028;5.670;2023-07-29T05:25:29;20.90;99.90
27559;DHT22;15002;52.028;5.670;2023-07-29T05:27:55;20.90;99.90
27559;DHT22;15002;52.028;5.670;2023-07-29T05:30:20;20.90;99.90
27559;DHT22;15002;52.028;5.670;2023-07-29T05:32:46;20.90;99.90
27559;DHT22;15002;52.028;5.670;2023-07-29T05:35:11;20.90;99.90
27559;DHT22;15002;52.028;5.670;2023-07-29T05:37:40;21.00;99.90
27559;DHT22;15002;52.028;5.670;2023-07-29T05:40:07;20.90;99.90
27559;DHT22;15002;52.028;5.670;2023-07-29T05:42:36;20.90;99.90
27559;DHT22;15002;52.028;5.670;2023-07-29T05:45:02;20.90;99.90
27559;DHT22;15002;52.028;5.670;2023-07-29T05:47:27;20.90;99.90
27559;DHT22;15002;52.028;5.670;2023-07-29T05:49:53;20.80;99.90
27559;DHT22;15002;52.028;5.670;2023-07-29T05:52:20;20.80;99.90
27559;DHT22;15002;52.028;5.670;2023-07-29T05:54:45;20.90;99.90
27559;DHT22;15002;52.028;5.670;2023-07-29T05:57:11;21.00;99.90
27559;DHT22;15002;52.028;5.670;2023-07-29T05:59:38;21.00;99.90
27559;DHT22;15002;52.028;5.670;2023-07-29T06:02:04;21.00;99.90
27559;DHT22;15002;52.028;5.670;2023-07-29T06:04:30;21.10;99.90
27559;DHT22;15002;52.028;5.670;2023-07-29T06:06:55;21.20;99.90
27559;DHT22;15002;52.028;5.670;2023-07-29T06:09:22;21.10;99.90
27559;DHT22;15002;52.028;5.670;2023-07-29T06:11:47;21.20;99.90
27559;DHT22;15002;52.028;5.670;2023-07-29T06:14:13;21.30;99.90
27559;DHT22;15002;52.028;5.670;2023-07-29T06:16:39;21.50;99.90
27559;DHT22;15002;52.028;5.670;2023-07-29T06:19:05;21.70;99.90
27559;DHT22;15002;52.028;5.670;2023-07-29T06:21:31;21.90;99.90
27559;DHT22;15002;52.028;5.670;2023-07-29T06:23:56;22.00;99.90
27559;DHT22;15002;52.028;5.670;2023-07-29T06:26:22;22.10;99.90
27559;DHT22;15002;52.028;5.670;2023-07-29T06:28:47;22.30;99.90
27559;DHT22;15002;52.028;5.670;2023-07-29T06:31:13;22.30;99.90
27559;DHT22;15002;52.028;5.670;2023-07-29T06:33:40;22.50;99.90
27559;DHT22;15002;52.028;5.670;2023-07-29T06:36:05;22.60;99.90
27559;DHT22;15002;52.028;5.670;2023-07-29T06:38:31;22.80;99.90
27559;DHT22;15002;52.028;5.670;2023-07-29T06:40:57;22.90;99.90
27559;DHT22;15002;52.028;5.670;2023-07-29T06:43:23;23.10;99.90
27559;DHT22;15002;52.028;5.670;2023-07-29T06:45:48;23.20;99.90
27559;DHT22;15002;52.028;5.670;2023-07-29T06:48:14;23.30;99.90
27559;DHT22;15002;52.028;5.670;2023-07-29T06:50:40;23.70;99.90
27559;DHT22;15002;52.028;5.670;2023-07-29T06:53:06;23.90;99.90
27559;DHT22;15002;52.028;5.670;2023-07-29T06:55:32;24.10;99.90
27559;DHT22;15002;52.028;5.670;2023-07-29T06:57:57;24.60;99.90
27559;DHT22;15002;52.028;5.670;2023-07-29T07:00:23;24.60;99.90
27559;DHT22;15002;52.028;5.670;2023-07-29T07:02:49;24.30;99.90
27559;DHT22;15002;52.028;5.670;2023-07-29T07:05:14;24.20;99.90
27559;DHT22;15002;52.028;5.670;2023-07-29T07:07:40;23.80;99.90
27559;DHT22;15002;52.028;5.670;2023-07-29T07:10:06;23.70;99.90
27559;DHT22;15002;52.028;5.670;2023-07-29T07:12:32;23.60;99.90
27559;DHT22;15002;52.028;5.670;2023-07-29T07:14:57;23.60;99.90
27559;DHT22;15002;52.028;5.670;2023-07-29T07:17:23;23.50;99.90
27559;DHT22;15002;52.028;5.670;2023-07-29T07:19:48;23.50;99.90
27559;DHT22;15002;52.028;5.670;2023-07-29T07:22:16;23.50;99.90
27559;DHT22;15002;52.028;5.670;2023-07-29T07:24:42;23.50;99.90
27559;DHT22;15002;52.028;5.670;2023-07-29T07:27:07;23.50;99.90
27559;DHT22;15002;52.028;5.670;2023-07-29T07:29:33;23.30;99.90
27559;DHT22;15002;52.028;5.670;2023-07-29T07:31:59;23.10;99.90
27559;DHT22;15002;52.028;5.670;2023-07-29T07:34:24;23.10;99.90
27559;DHT22;15002;52.028;5.670;2023-07-29T07:36:50;23.00;99.90
27559;DHT22;15002;52.028;5.670;2023-07-29T07:39:16;23.10;99.90
27559;DHT22;15002;52.028;5.670;2023-07-29T07:41:42;23.20;99.90
27559;DHT22;15002;52.028;5.670;2023-07-29T07:44:08;23.00;99.90
27559;DHT22;15002;52.028;5.670;2023-07-29T07:46:34;22.90;99.90
27559;DHT22;15002;52.028;5.670;2023-07-29T07:48:59;23.20;99.90
27559;DHT22;15002;52.028;5.670;2023-07-29T07:51:25;23.00;99.90
27559;DHT22;15002;52.028;5.670;2023-07-29T07:53:50;22.90;99.90
27559;DHT22;15002;52.028;5.670;2023-07-29T07:56:16;23.00;99.90
27559;DHT22;15002;52.028;5.670;2023-07-29T07:58:42;22.90;99.90
27559;DHT22;15002;52.028;5.670;2023-07-29T08:01:08;23.00;99.90
27559;DHT22;15002;52.028;5.670;2023-07-29T08:03:35;23.10;99.90
27559;DHT22;15002;52.028;5.670;2023-07-29T08:06:01;23.20;99.90
27559;DHT22;15002;52.028;5.670;2023-07-29T08:08:27;23.70;99.90
27559;DHT22;15002;52.028;5.670;2023-07-29T08:10:54;23.90;99.90
27559;DHT22;15002;52.028;5.670;2023-07-29T08:13:20;23.60;99.90
27559;DHT22;15002;52.028;5.670;2023-07-29T08:15:50;23.50;99.90
27559;DHT22;15002;52.028;5.670;2023-07-29T08:18:16;23.20;99.90
27559;DHT22;15002;52.028;5.670;2023-07-29T08:21:03;23.10;99.90
27559;DHT22;15002;52.028;5.670;2023-07-29T08:23:32;23.00;99.90
27559;DHT22;15002;52.028;5.670;2023-07-29T08:26:01;23.10;99.90
27559;DHT22;15002;52.028;5.670;2023-07-29T08:28:29;23.00;99.90
27559;DHT22;15002;52.028;5.670;2023-07-29T08:30:55;23.10;99.90
27559;DHT22;15002;52.028;5.670;2023-07-29T08:33:20;23.10;99.90
27559;DHT22;15002;52.028;5.670;2023-07-29T08:35:46;23.30;99.90
27559;DHT22;15002;52.028;5.670;2023-07-29T08:38:11;23.60;99.90
27559;DHT22;15002;52.028;5.670;2023-07-29T08:40:42;23.80;99.90
27559;DHT22;15002;52.028;5.670;2023-07-29T08:43:08;24.20;99.90
27559;DHT22;15002;52.028;5.670;2023-07-29T08:45:35;24.60;99.90
27559;DHT22;15002;52.028;5.670;2023-07-29T08:48:07;24.80;99.90
27559;DHT22;15002;52.028;5.670;2023-07-29T08:50:36;24.90;99.90
27559;DHT22;15002;52.028;5.670;2023-07-29T08:53:04;25.00;99.90
27559;DHT22;15002;52.028;5.670;2023-07-29T08:55:31;24.80;99.90
27559;DHT22;15002;52.028;5.670;2023-07-29T08:57:58;24.80;99.90
27559;DHT22;15002;52.028;5.670;2023-07-29T09:00:23;24.60;99.90
27559;DHT22;15002;52.028;5.670;2023-07-29T09:02:50;24.60;99.90
27559;DHT22;15002;52.028;5.670;2023-07-29T09:05:16;24.40;99.90
27559;DHT22;15002;52.028;5.670;2023-07-29T09:07:42;24.40;99.90
27559;DHT22;15002;52.028;5.670;2023-07-29T09:10:09;24.40;99.90
27559;DHT22;15002;52.028;5.670;2023-07-29T09:12:38;24.50;99.90
27559;DHT22;15002;52.028;5.670;2023-07-29T09:15:04;24.70;99.90
27559;DHT22;15002;52.028;5.670;2023-07-29T09:17:32;24.80;99.90
27559;DHT22;15002;52.028;5.670;2023-07-29T09:19:58;25.10;99.90
27559;DHT22;15002;52.028;5.670;2023-07-29T09:22:26;25.40;99.90
27559;DHT22;15002;52.028;5.670;2023-07-29T09:24:53;25.70;99.90
27559;DHT22;15002;52.028;5.670;2023-07-29T09:27:26;26.10;99.90
27559;DHT22;15002;52.028;5.670;2023-07-29T09:29:53;26.20;99.90
27559;DHT22;15002;52.028;5.670;2023-07-29T09:32:23;26.30;99.90
27559;DHT22;15002;52.028;5.670;2023-07-29T09:34:49;26.30;99.90
27559;DHT22;15002;52.028;5.670;2023-07-29T09:37:17;26.60;99.90
27559;DHT22;15002;52.028;5.670;2023-07-29T09:39:47;26.60;99.90
27559;DHT22;15002;52.028;5.670;2023-07-29T09:42:20;27.10;99.90
27559;DHT22;15002;52.028;5.670;2023-07-29T09:44:47;27.10;99.90
27559;DHT22;15002;52.028;5.670;2023-07-29T09:47:24;27.30;99.90
27559;DHT22;15002;52.028;5.670;2023-07-29T09:49:50;27.20;99.90
27559;DHT22;15002;52.028;5.670;2023-07-29T09:52:21;27.10;99.90
27559;DHT22;15002;52.028;5.670;2023-07-29T09:54:47;27.20;99.90
27559;DHT22;15002;52.028;5.670;2023-07-29T09:57:14;27.20;99.90
27559;DHT22;15002;52.028;5.670;2023-07-29T09:59:41;27.20;99.90
27559;DHT22;15002;52.028;5.670;2023-07-29T10:02:13;27.10;99.90
27559;DHT22;15002;52.028;5.670;2023-07-29T10:04:44;27.00;99.90
27559;DHT22;15002;52.028;5.670;2023-07-29T10:07:11;26.90;99.90
27559;DHT22;15002;52.028;5.670;2023-07-29T10:09:39;26.90;99.90
27559;DHT22;15002;52.028;5.670;2023-07-29T10:12:05;26.70;99.90
27559;DHT22;15002;52.028;5.670;2023-07-29T10:14:31;26.80;99.90
27559;DHT22;15002;52.028;5.670;2023-07-29T10:16:57;26.90;99.90
27559;DHT22;15002;52.028;5.670;2023-07-29T10:19:25;27.10;99.90
27559;DHT22;15002;52.028;5.670;2023-07-29T10:21:55;26.80;99.90
27559;DHT22;15002;52.028;5.670;2023-07-29T10:24:24;26.70;99.90
27559;DHT22;15002;52.028;5.670;2023-07-29T10:26:57;26.70;99.90
27559;DHT22;15002;52.028;5.670;2023-07-29T10:29:23;26.50;99.90
27559;DHT22;15002;52.028;5.670;2023-07-29T10:31:55;26.60;99.90
27559;DHT22;15002;52.028;5.670;2023-07-29T10:34:22;26.40;99.90
27559;DHT22;15002;52.028;5.670;2023-07-29T10:36:49;26.30;99.90
27559;DHT22;15002;52.028;5.670;2023-07-29T10:39:15;26.30;99.90
27559;DHT22;15002;52.028;5.670;2023-07-29T10:42:01;26.10;99.90
27559;DHT22;15002;52.028;5.670;2023-07-29T10:47:15;26.20;99.90
27559;DHT22;15002;52.028;5.670;2023-07-29T10:49:41;26.30;99.90
27559;DHT22;15002;52.028;5.670;2023-07-29T10:52:07;26.50;99.90
27559;DHT22;15002;52.028;5.670;2023-07-29T10:54:46;26.50;99.90
27559;DHT22;15002;52.028;5.670;2023-07-29T10:57:16;26.40;99.90
27559;DHT22;15002;52.028;5.670;2023-07-29T10:59:56;26.10;99.90
27559;DHT22;15002;52.028;5.670;2023-07-29T11:02:32;26.00;99.90
27559;DHT22;15002;52.028;5.670;2023-07-29T11:04:58;26.00;99.90
27559;DHT22;15002;52.028;5.670;2023-07-29T11:07:25;26.00;99.90
27559;DHT22;15002;52.028;5.670;2023-07-29T11:10:03;25.80;99.90
27559;DHT22;15002;52.028;5.670;2023-07-29T11:17:56;25.60;99.90
27559;DHT22;15002;52.028;5.670;2023-07-29T11:20:28;25.40;99.90
27559;DHT22;15002;52.028;5.670;2023-07-29T11:22:55;25.30;99.90
27559;DHT22;15002;52.028;5.670;2023-07-29T11:25:22;25.10;99.90
27559;DHT22;15002;52.028;5.670;2023-07-29T11:27:49;25.20;99.90
27559;DHT22;15002;52.028;5.670;2023-07-29T11:30:16;25.30;99.90
27559;DHT22;15002;52.028;5.670;2023-07-29T11:32:43;25.00;99.90
27559;DHT22;15002;52.028;5.670;2023-07-29T11:35:17;24.90;99.90
27559;DHT22;15002;52.028;5.670;2023-07-29T11:37:45;24.70;99.90
27559;DHT22;15002;52.028;5.670;2023-07-29T11:40:15;24.40;99.90
27559;DHT22;15002;52.028;5.670;2023-07-29T11:42:41;24.30;99.90
27559;DHT22;15002;52.028;5.670;2023-07-29T11:45:08;24.20;99.90
27559;DHT22;15002;52.028;5.670;2023-07-29T11:47:35;24.20;99.90
27559;DHT22;15002;52.028;5.670;2023-07-29T11:50:03;24.10;99.90
27559;DHT22;15002;52.028;5.670;2023-07-29T11:52:32;24.20;99.90
27559;DHT22;15002;52.028;5.670;2023-07-29T11:54:58;24.20;99.90
27559;DHT22;15002;52.028;5.670;2023-07-29T11:57:24;24.10;99.90
27559;DHT22;15002;52.028;5.670;2023-07-29T11:59:49;24.10;99.90
27559;DHT22;15002;52.028;5.670;2023-07-29T12:02:17;23.90;99.90
27559;DHT22;15002;52.028;5.670;2023-07-29T12:04:46;23.80;99.90
27559;DHT22;15002;52.028;5.670;2023-07-29T12:07:13;23.50;99.90
27559;DHT22;15002;52.028;5.670;2023-07-29T12:09:41;23.50;99.90
27559;DHT22;15002;52.028;5.670;2023-07-29T12:12:07;23.30;99.90
27559;DHT22;15002;52.028;5.670;2023-07-29T12:14:34;23.20;99.90
27559;DHT22;15002;52.028;5.670;2023-07-29T12:17:06;23.20;99.90
27559;DHT22;15002;52.028;5.670;2023-07-29T12:19:37;23.10;99.90
27559;DHT22;15002;52.028;5.670;2023-07-29T12:22:04;23.10;99.90
27559;DHT22;15002;52.028;5.670;2023-07-29T12:24:31;23.20;99.90
27559;DHT22;15002;52.028;5.670;2023-07-29T12:26:57;23.50;99.90
27559;DHT22;15002;52.028;5.670;2023-07-29T12:29:23;23.70;99.90
27559;DHT22;15002;52.028;5.670;2023-07-29T12:32:00;23.90;99.90
27559;DHT22;15002;52.028;5.670;2023-07-29T12:34:27;23.80;99.90
27559;DHT22;15002;52.028;5.670;2023-07-29T12:36:54;24.10;99.90
27559;DHT22;15002;52.028;5.670;2023-07-29T12:39:25;24.00;99.90
27559;DHT22;15002;52.028;5.670;2023-07-29T12:41:56;24.10;99.90
27559;DHT22;15002;52.028;5.670;2023-07-29T12:44:30;24.30;99.90
27559;DHT22;15002;52.028;5.670;2023-07-29T12:46:56;24.40;99.90
27559;DHT22;15002;52.028;5.670;2023-07-29T12:49:21;24.80;99.90
27559;DHT22;15002;52.028;5.670;2023-07-29T12:51:48;25.00;99.90
27559;DHT22;15002;52.028;5.670;2023-07-29T12:54:13;24.90;99.90
27559;DHT22;15002;52.028;5.670;2023-07-29T12:56:39;24.90;99.90
27559;DHT22;15002;52.028;5.670;2023-07-29T12:59:05;25.20;99.90
27559;DHT22;15002;52.028;5.670;2023-07-29T13:01:31;25.10;99.90
27559;DHT22;15002;52.028;5.670;2023-07-29T13:03:57;25.10;99.90
27559;DHT22;15002;52.028;5.670;2023-07-29T13:06:22;25.10;99.90
27559;DHT22;15002;52.028;5.670;2023-07-29T13:08:48;25.40;99.90
27559;DHT22;15002;52.028;5.670;2023-07-29T13:11:15;25.60;99.90
27559;DHT22;15002;52.028;5.670;2023-07-29T13:13:41;25.20;99.90
27559;DHT22;15002;52.028;5.670;2023-07-29T13:16:06;25.10;99.90
27559;DHT22;15002;52.028;5.670;2023-07-29T13:18:33;25.10;99.90
27559;DHT22;15002;52.028;5.670;2023-07-29T13:20:58;25.00;99.90
27559;DHT22;15002;52.028;5.670;2023-07-29T13:23:25;25.30;99.90
27559;DHT22;15002;52.028;5.670;2023-07-29T13:25:51;25.00;99.90
27559;DHT22;15002;52.028;5.670;2023-07-29T13:28:17;24.90;99.90
27559;DHT22;15002;52.028;5.670;2023-07-29T13:30:42;24.90;99.90
27559;DHT22;15002;52.028;5.670;2023-07-29T13:33:08;24.70;99.90
27559;DHT22;15002;52.028;5.670;2023-07-29T13:35:34;24.90;99.90
27559;DHT22;15002;52.028;5.670;2023-07-29T13:38:01;24.70;99.90
27559;DHT22;15002;52.028;5.670;2023-07-29T13:40:26;24.60;99.90
27559;DHT22;15002;52.028;5.670;2023-07-29T13:42:53;24.80;99.90
27559;DHT22;15002;52.028;5.670;2023-07-29T13:45:18;25.10;99.90
27559;DHT22;15002;52.028;5.670;2023-07-29T13:47:44;25.00;99.90
27559;DHT22;15002;52.028;5.670;2023-07-29T13:50:10;25.10;99.90
27559;DHT22;15002;52.028;5.670;2023-07-29T13:52:37;24.90;99.90
27559;DHT22;15002;52.028;5.670;2023-07-29T13:55:06;24.90;99.90
27559;DHT22;15002;52.028;5.670;2023-07-29T13:57:32;24.70;99.90
27559;DHT22;15002;52.028;5.670;2023-07-29T13:59:58;24.90;99.90
27559;DHT22;15002;52.028;5.670;2023-07-29T14:02:24;24.60;99.90
27559;DHT22;15002;52.028;5.670;2023-07-29T14:04:52;24.90;99.90
27559;DHT22;15002;52.028;5.670;2023-07-29T14:07:17;24.90;99.90
27559;DHT22;15002;52.028;5.670;2023-07-29T14:09:43;25.20;99.90
27559;DHT22;15002;52.028;5.670;2023-07-29T14:12:09;25.30;99.90
27559;DHT22;15002;52.028;5.670;2023-07-29T14:14:40;25.20;99.90
27559;DHT22;15002;52.028;5.670;2023-07-29T14:17:06;25.20;99.90
27559;DHT22;15002;52.028;5.670;2023-07-29T14:19:32;25.20;99.90
27559;DHT22;15002;52.028;5.670;2023-07-29T14:21:58;25.30;99.90
27559;DHT22;15002;52.028;5.670;2023-07-29T14:24:23;25.20;99.90
27559;DHT22;15002;52.028;5.670;2023-07-29T14:26:49;25.20;99.90
27559;DHT22;15002;52.028;5.670;2023-07-29T14:29:15;25.20;99.90
27559;DHT22;15002;52.028;5.670;2023-07-29T14:31:41;25.10;99.90
27559;DHT22;15002;52.028;5.670;2023-07-29T14:34:06;25.20;99.90
27559;DHT22;15002;52.028;5.670;2023-07-29T14:36:32;25.20;99.90
27559;DHT22;15002;52.028;5.670;2023-07-29T14:38:57;25.10;99.90
27559;DHT22;15002;52.028;5.670;2023-07-29T14:41:23;25.40;99.90
27559;DHT22;15002;52.028;5.670;2023-07-29T14:43:49;25.50;99.90
27559;DHT22;15002;52.028;5.670;2023-07-29T14:46:15;25.60;99.90
27559;DHT22;15002;52.028;5.670;2023-07-29T14:48:40;25.50;99.90
27559;DHT22;15002;52.028;5.670;2023-07-29T14:51:06;25.60;99.90
27559;DHT22;15002;52.028;5.670;2023-07-29T14:53:31;25.50;99.90
27559;DHT22;15002;52.028;5.670;2023-07-29T14:55:57;25.40;99.90
27559;DHT22;15002;52.028;5.670;2023-07-29T14:58:23;25.50;99.90
27559;DHT22;15002;52.028;5.670;2023-07-29T15:00:51;25.60;99.90
27559;DHT22;15002;52.028;5.670;2023-07-29T15:03:16;25.60;99.90
27559;DHT22;15002;52.028;5.670;2023-07-29T15:05:42;25.80;99.90
27559;DHT22;15002;52.028;5.670;2023-07-29T15:08:08;25.70;99.90
27559;DHT22;15002;52.028;5.670;2023-07-29T15:10:34;25.40;99.90
27559;DHT22;15002;52.028;5.670;2023-07-29T15:12:59;25.70;99.90
27559;DHT22;15002;52.028;5.670;2023-07-29T15:15:25;25.70;99.90
27559;DHT22;15002;52.028;5.670;2023-07-29T15:17:50;25.70;99.90
27559;DHT22;15002;52.028;5.670;2023-07-29T15:20:16;25.70;99.90
27559;DHT22;15002;52.028;5.670;2023-07-29T15:22:42;25.50;99.90
27559;DHT22;15002;52.028;5.670;2023-07-29T15:25:09;25.70;99.90
27559;DHT22;15002;52.028;5.670;2023-07-29T15:27:35;25.70;99.90
27559;DHT22;15002;52.028;5.670;2023-07-29T15:30:00;25.90;99.90
27559;DHT22;15002;52.028;5.670;2023-07-29T15:32:26;25.90;99.90
27559;DHT22;15002;52.028;5.670;2023-07-29T15:34:53;25.80;99.90
27559;DHT22;15002;52.028;5.670;2023-07-29T15:37:19;25.90;99.90
27559;DHT22;15002;52.028;5.670;2023-07-29T15:39:44;26.00;99.90